sensor_id;sensor_type;location;lat;lon;timestamp;pressure;altitude;pressure_sealevel;temperature;humidity
7990;BME280;4040;42.848;23.034;2023-04-02T00:02:30;94047.47;;;4.23;100.00
7990;BME280;4040;42.848;23.034;2023-04-02T00:08:35;94040.97;;;4.27;100.00
7990;BME280;4040;42.848;23.034;2023-04-02T00:14:30;94042.13;;;4.30;100.00
7990;BME280;4040;42.848;23.034;2023-04-02T00:20:20;94045.13;;;4.00;100.00
7990;BME280;4040;42.848;23.034;2023-04-02T00:26:27;94048.94;;;4.10;100.00
7990;BME280;4040;42.848;23.034;2023-04-02T00:32:22;94048.22;;;4.13;100.00
7990;BME280;4040;42.848;23.034;2023-04-02T00:38:18;94055.09;;;4.35;100.00
7990;BME280;4040;42.848;23.034;2023-04-02T00:44:10;94056.63;;;4.36;100.00
7990;BME280;4040;42.848;23.034;2023-04-02T00:50:05;94049.00;;;4.59;100.00
7990;BME280;4040;42.848;23.034;2023-04-02T00:55:56;94049.00;;;4.62;100.00
7990;BME280;4040;42.848;23.034;2023-04-02T01:01:50;94049.00;;;4.76;100.00
7990;BME280;4040;42.848;23.034;2023-04-02T01:07:56;94049.75;;;4.83;100.00
7990;BME280;4040;42.848;23.034;2023-04-02T01:13:53;94044.44;;;4.56;100.00
7990;BME280;4040;42.848;23.034;2023-04-02T01:20:09;94039.84;;;4.39;100.00
7990;BME280;4040;42.848;23.034;2023-04-02T01:26:05;94041.38;;;4.61;100.00
7990;BME280;4040;42.848;23.034;2023-04-02T01:32:00;94043.66;;;4.76;100.00
7990;BME280;4040;42.848;23.034;2023-04-02T01:37:53;94052.81;;;4.72;100.00
7990;BME280;4040;42.848;23.034;2023-04-02T01:43:50;94057.38;;;4.50;100.00
7990;BME280;4040;42.848;23.034;2023-04-02T01:49:42;94054.34;;;4.62;100.00
7990;BME280;4040;42.848;23.034;2023-04-02T01:55:39;94055.88;;;4.67;100.00
7990;BME280;4040;42.848;23.034;2023-04-02T02:01:30;94035.28;;;4.64;100.00
7990;BME280;4040;42.848;23.034;2023-04-02T02:07:23;94049.38;;;4.54;100.00
7990;BME280;4040;42.848;23.034;2023-04-02T02:13:13;94050.13;;;4.33;100.00
7990;BME280;4040;42.848;23.034;2023-04-02T02:19:03;94036.03;;;4.19;100.00
7990;BME280;4040;42.848;23.034;2023-04-02T02:24:54;94048.16;;;3.99;100.00
7990;BME280;4040;42.848;23.034;2023-04-02T02:30:46;94057.28;;;3.87;100.00
7990;BME280;4040;42.848;23.034;2023-04-02T02:36:42;94058.09;;;4.09;100.00
7990;BME280;4040;42.848;23.034;2023-04-02T02:42:38;94048.19;;;4.06;100.00
7990;BME280;4040;42.848;23.034;2023-04-02T02:48:34;94061.94;;;4.36;100.00
7990;BME280;4040;42.848;23.034;2023-04-02T02:54:24;94057.75;;;4.49;100.00
7990;BME280;4040;42.848;23.034;2023-04-02T03:00:15;94040.22;;;4.62;100.00
7990;BME280;4040;42.848;23.034;2023-04-02T03:10:33;94041.38;;;4.43;100.00
7990;BME280;4040;42.848;23.034;2023-04-02T03:16:27;94054.31;;;4.24;100.00
7990;BME280;4040;42.848;23.034;2023-04-02T03:22:22;94065.75;;;4.42;100.00
7990;BME280;4040;42.848;23.034;2023-04-02T03:28:19;94059.66;;;4.38;100.00
7990;BME280;4040;42.848;23.034;2023-04-02T03:34:16;94068.78;;;4.33;100.00
7990;BME280;4040;42.848;23.034;2023-04-02T03:40:13;94065.66;;;3.96;100.00
7990;BME280;4040;42.848;23.034;2023-04-02T03:46:15;94067.56;;;3.82;100.00
7990;BME280;4040;42.848;23.034;2023-04-02T03:52:14;94076.25;;;3.72;100.00
7990;BME280;4040;42.848;23.034;2023-04-02T03:58:10;94079.31;;;3.74;100.00
7990;BME280;4040;42.848;23.034;2023-04-02T04:04:05;94067.06;;;3.52;100.00
7990;BME280;4040;42.848;23.034;2023-04-02T04:09:59;94078.50;;;3.63;100.00
7990;BME280;4040;42.848;23.034;2023-04-02T04:15:53;93989.78;;;2.56;100.00
7990;BME280;4040;42.848;23.034;2023-04-02T04:21:42;94088.03;;;2.92;100.00
7990;BME280;4040;42.848;23.034;2023-04-02T04:27:38;94086.56;;;3.02;100.00
7990;BME280;4040;42.848;23.034;2023-04-02T04:33:30;94086.31;;;3.24;100.00
7990;BME280;4040;42.848;23.034;2023-04-02T04:39:29;94092.97;;;3.62;100.00
7990;BME280;4040;42.848;23.034;2023-04-02T04:45:40;94102.97;;;3.93;100.00
7990;BME280;4040;42.848;23.034;2023-04-02T04:51:36;94096.94;;;4.13;100.00
7990;BME280;4040;42.848;23.034;2023-04-02T04:57:29;94101.94;;;4.53;100.00
7990;BME280;4040;42.848;23.034;2023-04-02T05:03:27;94112.16;;;5.52;100.00
7990;BME280;4040;42.848;23.034;2023-04-02T05:13:45;94077.09;;;7.68;100.00
7990;BME280;4040;42.848;23.034;2023-04-02T05:19:41;94103.41;;;8.10;100.00
7990;BME280;4040;42.848;23.034;2023-04-02T05:25:31;94114.22;;;8.63;100.00
7990;BME280;4040;42.848;23.034;2023-04-02T05:31:24;94099.00;;;9.91;100.00
7990;BME280;4040;42.848;23.034;2023-04-02T05:37:18;94118.78;;;12.02;100.00
7990;BME280;4040;42.848;23.034;2023-04-02T05:43:08;94117.38;;;12.26;92.73
7990;BME280;4040;42.848;23.034;2023-04-02T05:48:58;94099.16;;;13.89;83.35
7990;BME280;4040;42.848;23.034;2023-04-02T05:54:52;94098.78;;;16.63;58.52
7990;BME280;4040;42.848;23.034;2023-04-02T06:00:52;94121.66;;;15.15;61.65
7990;BME280;4040;42.848;23.034;2023-04-02T06:06:47;94114.06;;;16.42;58.07
7990;BME280;4040;42.848;23.034;2023-04-02T06:12:42;94113.78;;;17.97;53.59
7990;BME280;4040;42.848;23.034;2023-04-02T06:18:34;94121.53;;;16.83;54.96
7990;BME280;4040;42.848;23.034;2023-04-02T06:24:25;94117.22;;;17.18;54.26
7990;BME280;4040;42.848;23.034;2023-04-02T06:30:19;94109.72;;;20.30;47.43
7990;BME280;4040;42.848;23.034;2023-04-02T06:36:08;94106.75;;;21.29;43.77
7990;BME280;4040;42.848;23.034;2023-04-02T06:42:00;94108.38;;;23.11;40.64
7990;BME280;4040;42.848;23.034;2023-04-02T06:47:54;94113.28;;;24.85;35.79
7990;BME280;4040;42.848;23.034;2023-04-02T06:53:46;94106.09;;;24.03;35.28
7990;BME280;4040;42.848;23.034;2023-04-02T06:59:35;94120.66;;;21.93;37.38
7990;BME280;4040;42.848;23.034;2023-04-02T07:05:26;94118.81;;;24.17;36.07
7990;BME280;4040;42.848;23.034;2023-04-02T07:15:26;94139.13;;;23.37;34.85
7990;BME280;4040;42.848;23.034;2023-04-02T07:21:16;94141.19;;;22.62;36.82
7990;BME280;4040;42.848;23.034;2023-04-02T07:27:05;94143.13;;;23.69;35.47
7990;BME280;4040;42.848;23.034;2023-04-02T07:32:54;94148.38;;;23.23;35.87
7990;BME280;4040;42.848;23.034;2023-04-02T07:38:45;94153.19;;;24.67;33.58
7990;BME280;4040;42.848;23.034;2023-04-02T07:44:33;94154.34;;;23.22;35.34
7990;BME280;4040;42.848;23.034;2023-04-02T07:50:22;94152.78;;;22.29;37.18
7990;BME280;4040;42.848;23.034;2023-04-02T07:56:15;94144.13;;;22.47;36.39
7990;BME280;4040;42.848;23.034;2023-04-02T08:02:04;94154.75;;;22.82;36.44
7990;BME280;4040;42.848;23.034;2023-04-02T08:07:53;94152.94;;;24.71;33.95
7990;BME280;4040;42.848;23.034;2023-04-02T08:18:06;94165.59;;;24.17;34.89
7990;BME280;4040;42.848;23.034;2023-04-02T08:23:54;94163.91;;;25.63;33.09
7990;BME280;4040;42.848;23.034;2023-04-02T08:29:44;94171.44;;;22.78;34.35
7990;BME280;4040;42.848;23.034;2023-04-02T08:35:34;94169.03;;;24.34;33.00
7990;BME280;4040;42.848;23.034;2023-04-02T08:41:25;94138.06;;;26.85;30.98
7990;BME280;4040;42.848;23.034;2023-04-02T08:47:16;94168.56;;;26.56;29.68
7990;BME280;4040;42.848;23.034;2023-04-02T08:53:14;94170.13;;;23.87;33.53
7990;BME280;4040;42.848;23.034;2023-04-02T08:59:08;94162.97;;;22.23;35.76
7990;BME280;4040;42.848;23.034;2023-04-02T09:05:05;94144.13;;;27.02;30.73
7990;BME280;4040;42.848;23.034;2023-04-02T09:11:00;94141.88;;;23.37;33.34
7990;BME280;4040;42.848;23.034;2023-04-02T09:21:27;94168.47;;;24.63;33.26
7990;BME280;4040;42.848;23.034;2023-04-02T09:27:23;94164.47;;;24.58;31.50
7990;BME280;4040;42.848;23.034;2023-04-02T09:33:12;94164.31;;;24.23;30.63
7990;BME280;4040;42.848;23.034;2023-04-02T09:39:05;94164.28;;;21.60;34.83
7990;BME280;4040;42.848;23.034;2023-04-02T09:45:11;94166.63;;;19.28;39.76
7990;BME280;4040;42.848;23.034;2023-04-02T09:51:12;94156.72;;;21.50;35.76
7990;BME280;4040;42.848;23.034;2023-04-02T09:57:22;94153.03;;;18.90;41.07
7990;BME280;4040;42.848;23.034;2023-04-02T10:03:22;94144.44;;;18.68;40.35
7990;BME280;4040;42.848;23.034;2023-04-02T10:09:19;94163.06;;;18.55;40.57
7990;BME280;4040;42.848;23.034;2023-04-02T10:15:14;94160.34;;;17.85;39.30
7990;BME280;4040;42.848;23.034;2023-04-02T10:21:07;94162.16;;;18.11;40.39
7990;BME280;4040;42.848;23.034;2023-04-02T10:27:06;94155.81;;;19.19;38.88
7990;BME280;4040;42.848;23.034;2023-04-02T10:33:06;94144.41;;;21.65;37.13
7990;BME280;4040;42.848;23.034;2023-04-02T10:39:02;94137.03;;;22.24;33.88
7990;BME280;4040;42.848;23.034;2023-04-02T10:44:56;94116.84;;;21.43;33.99
7990;BME280;4040;42.848;23.034;2023-04-02T10:50:53;94131.22;;;19.82;36.81
7990;BME280;4040;42.848;23.034;2023-04-02T10:56:44;94132.94;;;25.46;30.05
7990;BME280;4040;42.848;23.034;2023-04-02T11:02:38;94124.91;;;26.07;27.55
7990;BME280;4040;42.848;23.034;2023-04-02T11:08:37;94125.25;;;24.93;31.34
7990;BME280;4040;42.848;23.034;2023-04-02T11:14:30;94128.13;;;20.74;33.77
7990;BME280;4040;42.848;23.034;2023-04-02T11:20:41;94124.69;;;19.16;38.63
7990;BME280;4040;42.848;23.034;2023-04-02T11:26:34;94121.69;;;19.43;38.24
7990;BME280;4040;42.848;23.034;2023-04-02T11:32:32;94124.16;;;18.98;38.84
7990;BME280;4040;42.848;23.034;2023-04-02T11:38:47;94099.22;;;18.76;39.46
7990;BME280;4040;42.848;23.034;2023-04-02T11:44:37;94103.88;;;18.08;40.06
7990;BME280;4040;42.848;23.034;2023-04-02T11:50:31;94098.53;;;17.91;39.06
7990;BME280;4040;42.848;23.034;2023-04-02T11:56:28;94102.44;;;17.75;39.17
7990;BME280;4040;42.848;23.034;2023-04-02T12:02:24;94102.91;;;17.74;40.14
7990;BME280;4040;42.848;23.034;2023-04-02T12:08:30;94105.09;;;17.84;38.08
7990;BME280;4040;42.848;23.034;2023-04-02T12:14:45;94115.06;;;17.87;37.25
7990;BME280;4040;42.848;23.034;2023-04-02T12:20:34;94094.44;;;17.95;36.01
7990;BME280;4040;42.848;23.034;2023-04-02T12:26:28;94103.06;;;17.47;37.87
7990;BME280;4040;42.848;23.034;2023-04-02T12:32:20;94086.38;;;18.00;37.34
7990;BME280;4040;42.848;23.034;2023-04-02T12:38:22;94079.97;;;17.89;38.35
7990;BME280;4040;42.848;23.034;2023-04-02T12:44:14;94087.97;;;17.69;38.67
7990;BME280;4040;42.848;23.034;2023-04-02T12:50:05;94086.09;;;17.75;38.06
7990;BME280;4040;42.848;23.034;2023-04-02T12:55:54;94078.63;;;17.61;39.23
7990;BME280;4040;42.848;23.034;2023-04-02T13:01:55;94074.16;;;17.49;39.67
7990;BME280;4040;42.848;23.034;2023-04-02T13:07:46;94079.53;;;17.26;39.19
7990;BME280;4040;42.848;23.034;2023-04-02T13:13:36;94069.69;;;16.96;39.44
7990;BME280;4040;42.848;23.034;2023-04-02T13:23:49;94073.50;;;16.89;40.88
7990;BME280;4040;42.848;23.034;2023-04-02T13:29:37;94073.44;;;17.07;40.16
7990;BME280;4040;42.848;23.034;2023-04-02T13:35:27;94074.28;;;17.13;39.37
7990;BME280;4040;42.848;23.034;2023-04-02T13:41:22;94069.47;;;17.17;40.42
7990;BME280;4040;42.848;23.034;2023-04-02T13:47:13;94061.41;;;16.90;40.09
7990;BME280;4040;42.848;23.034;2023-04-02T13:53:04;94062.94;;;16.73;38.93
7990;BME280;4040;42.848;23.034;2023-04-02T13:58:55;94061.91;;;16.80;39.12
7990;BME280;4040;42.848;23.034;2023-04-02T14:04:46;94051.28;;;16.91;40.16
7990;BME280;4040;42.848;23.034;2023-04-02T14:10:50;94053.25;;;16.81;40.48
7990;BME280;4040;42.848;23.034;2023-04-02T14:16:53;94037.34;;;16.56;39.73
7990;BME280;4040;42.848;23.034;2023-04-02T14:19:39;94043.66;;;16.62;40.27
7990;BME280;4040;42.848;23.034;2023-04-02T14:25:38;94041.13;;;16.59;40.04
7990;BME280;4040;42.848;23.034;2023-04-02T14:31:33;94036.41;;;16.59;39.72
7990;BME280;4040;42.848;23.034;2023-04-02T14:37:31;94042.19;;;16.34;37.91
7990;BME280;4040;42.848;23.034;2023-04-02T14:43:23;94039.78;;;16.45;38.10
7990;BME280;4040;42.848;23.034;2023-04-02T14:49:21;94027.41;;;16.44;38.02
7990;BME280;4040;42.848;23.034;2023-04-02T14:55:28;94046.75;;;16.37;38.23
7990;BME280;4040;42.848;23.034;2023-04-02T15:01:21;94050.66;;;16.18;37.75
7990;BME280;4040;42.848;23.034;2023-04-02T15:07:18;94057.44;;;16.05;38.15
7990;BME280;4040;42.848;23.034;2023-04-02T15:13:16;94051.28;;;16.04;38.20
7990;BME280;4040;42.848;23.034;2023-04-02T15:19:11;94059.72;;;16.06;38.90
7990;BME280;4040;42.848;23.034;2023-04-02T15:25:10;94062.44;;;15.88;38.82
7990;BME280;4040;42.848;23.034;2023-04-02T15:31:05;94055.97;;;15.77;39.73
7990;BME280;4040;42.848;23.034;2023-04-02T15:37:06;94058.66;;;15.68;39.46
7990;BME280;4040;42.848;23.034;2023-04-02T15:43:05;94041.13;;;15.42;40.18
7990;BME280;4040;42.848;23.034;2023-04-02T15:49:18;94068.38;;;15.29;41.41
7990;BME280;4040;42.848;23.034;2023-04-02T15:55:18;94063.50;;;15.16;40.85
7990;BME280;4040;42.848;23.034;2023-04-02T16:01:13;94058.03;;;14.98;40.93
7990;BME280;4040;42.848;23.034;2023-04-02T16:07:23;94072.16;;;14.93;42.06
7990;BME280;4040;42.848;23.034;2023-04-02T16:13:16;94067.66;;;14.68;42.96
7990;BME280;4040;42.848;23.034;2023-04-02T16:19:11;94075.00;;;14.59;43.85
7990;BME280;4040;42.848;23.034;2023-04-02T16:25:06;94071.56;;;14.37;43.74
7990;BME280;4040;42.848;23.034;2023-04-02T16:31:07;94072.66;;;14.18;43.54
7990;BME280;4040;42.848;23.034;2023-04-02T16:37:00;94084.22;;;13.84;44.84
7990;BME280;4040;42.848;23.034;2023-04-02T16:42:59;94056.41;;;13.50;45.09
7990;BME280;4040;42.848;23.034;2023-04-02T16:48:57;94095.63;;;13.33;45.70
7990;BME280;4040;42.848;23.034;2023-04-02T16:54:56;94101.03;;;13.08;46.65
7990;BME280;4040;42.848;23.034;2023-04-02T17:00:51;94106.69;;;13.01;47.56
7990;BME280;4040;42.848;23.034;2023-04-02T17:06:46;94111.19;;;12.79;48.30
7990;BME280;4040;42.848;23.034;2023-04-02T17:12:44;94121.59;;;12.40;49.65
7990;BME280;4040;42.848;23.034;2023-04-02T17:18:35;94108.03;;;12.15;50.92
7990;BME280;4040;42.848;23.034;2023-04-02T17:24:27;94141.63;;;12.14;52.21
7990;BME280;4040;42.848;23.034;2023-04-02T17:30:19;94139.09;;;11.62;55.42
7990;BME280;4040;42.848;23.034;2023-04-02T17:36:24;94157.22;;;11.30;60.02
7990;BME280;4040;42.848;23.034;2023-04-02T17:42:23;94169.41;;;11.02;65.02
7990;BME280;4040;42.848;23.034;2023-04-02T17:48:20;94167.31;;;10.74;72.63
7990;BME280;4040;42.848;23.034;2023-04-02T17:54:27;94177.44;;;10.31;72.86
7990;BME280;4040;42.848;23.034;2023-04-02T18:00:30;94183.59;;;10.67;69.86
7990;BME280;4040;42.848;23.034;2023-04-02T18:06:27;94173.44;;;10.39;71.68
7990;BME280;4040;42.848;23.034;2023-04-02T18:12:27;94193.84;;;10.17;76.59
7990;BME280;4040;42.848;23.034;2023-04-02T18:18:29;94207.75;;;10.12;77.54
7990;BME280;4040;42.848;23.034;2023-04-02T18:24:32;94202.63;;;9.98;78.65
7990;BME280;4040;42.848;23.034;2023-04-02T18:30:30;94219.91;;;9.75;82.52
7990;BME280;4040;42.848;23.034;2023-04-02T18:36:22;94242.72;;;9.90;84.19
7990;BME280;4040;42.848;23.034;2023-04-02T18:42:27;94249.91;;;9.96;81.79
7990;BME280;4040;42.848;23.034;2023-04-02T18:48:30;94256.41;;;9.98;81.81
7990;BME280;4040;42.848;23.034;2023-04-02T18:54:26;94253.44;;;10.16;80.95
7990;BME280;4040;42.848;23.034;2023-04-02T19:00:24;94258.53;;;10.10;82.53
7990;BME280;4040;42.848;23.034;2023-04-02T19:06:17;94258.88;;;9.90;88.45
7990;BME280;4040;42.848;23.034;2023-04-02T19:12:14;94262.47;;;9.57;94.03
7990;BME280;4040;42.848;23.034;2023-04-02T19:18:09;94257.28;;;9.43;96.64
7990;BME280;4040;42.848;23.034;2023-04-02T19:24:20;94260.44;;;9.38;98.61
7990;BME280;4040;42.848;23.034;2023-04-02T19:30:33;94262.28;;;9.18;100.00
7990;BME280;4040;42.848;23.034;2023-04-02T19:36:42;94267.09;;;9.00;100.00
7990;BME280;4040;42.848;23.034;2023-04-02T19:42:42;94277.41;;;8.75;100.00
7990;BME280;4040;42.848;23.034;2023-04-02T19:48:37;94288.00;;;8.18;100.00
7990;BME280;4040;42.848;23.034;2023-04-02T19:54:28;94296.00;;;8.22;100.00
7990;BME280;4040;42.848;23.034;2023-04-02T20:00:19;94295.72;;;8.06;100.00
7990;BME280;4040;42.848;23.034;2023-04-02T20:06:08;94300.59;;;7.74;100.00
7990;BME280;4040;42.848;23.034;2023-04-02T20:11:57;94296.16;;;7.57;100.00
7990;BME280;4040;42.848;23.034;2023-04-02T20:17:47;94293.28;;;7.31;100.00
7990;BME280;4040;42.848;23.034;2023-04-02T20:23:35;94298.31;;;7.18;100.00
7990;BME280;4040;42.848;23.034;2023-04-02T20:29:24;94306.34;;;7.18;100.00
7990;BME280;4040;42.848;23.034;2023-04-02T20:35:17;94298.53;;;7.41;100.00
7990;BME280;4040;42.848;23.034;2023-04-02T20:41:06;94306.91;;;7.50;100.00
7990;BME280;4040;42.848;23.034;2023-04-02T20:46:55;94300.44;;;7.44;100.00
7990;BME280;4040;42.848;23.034;2023-04-02T20:52:56;94310.53;;;7.19;100.00
7990;BME280;4040;42.848;23.034;2023-04-02T20:58:45;94310.38;;;6.75;100.00
7990;BME280;4040;42.848;23.034;2023-04-02T21:04:34;94319.69;;;6.25;100.00
7990;BME280;4040;42.848;23.034;2023-04-02T21:10:24;94318.91;;;6.25;100.00
7990;BME280;4040;42.848;23.034;2023-04-02T21:16:15;94330.38;;;6.32;100.00
7990;BME280;4040;42.848;23.034;2023-04-02T21:26:29;94331.16;;;6.22;100.00
7990;BME280;4040;42.848;23.034;2023-04-02T21:32:18;94328.88;;;6.24;100.00
7990;BME280;4040;42.848;23.034;2023-04-02T21:38:07;94346.38;;;6.53;100.00
7990;BME280;4040;42.848;23.034;2023-04-02T21:43:59;94337.94;;;6.65;100.00
7990;BME280;4040;42.848;23.034;2023-04-02T21:49:48;94334.09;;;6.66;100.00
7990;BME280;4040;42.848;23.034;2023-04-02T21:55:37;94344.06;;;6.59;100.00
7990;BME280;4040;42.848;23.034;2023-04-02T22:08:26;94354.44;;;6.29;100.00
7990;BME280;4040;42.848;23.034;2023-04-02T22:14:14;94338.41;;;6.29;100.00
7990;BME280;4040;42.848;23.034;2023-04-02T22:20:04;94334.94;;;6.35;100.00
7990;BME280;4040;42.848;23.034;2023-04-02T22:25:56;94342.59;;;6.26;100.00
7990;BME280;4040;42.848;23.034;2023-04-02T22:31:45;94335.75;;;6.08;100.00
7990;BME280;4040;42.848;23.034;2023-04-02T22:37:34;94341.13;;;5.90;100.00
7990;BME280;4040;42.848;23.034;2023-04-02T22:43:24;94338.81;;;5.85;100.00
7990;BME280;4040;42.848;23.034;2023-04-02T22:49:13;94347.94;;;5.56;100.00
7990;BME280;4040;42.848;23.034;2023-04-02T22:55:06;94335.69;;;5.34;100.00
7990;BME280;4040;42.848;23.034;2023-04-02T23:01:01;94336.06;;;5.22;100.00
7990;BME280;4040;42.848;23.034;2023-04-02T23:11:13;94328.31;;;4.82;100.00
7990;BME280;4040;42.848;23.034;2023-04-02T23:17:04;94327.22;;;4.94;100.00
7990;BME280;4040;42.848;23.034;2023-04-02T23:22:52;94316.97;;;5.06;100.00
7990;BME280;4040;42.848;23.034;2023-04-02T23:28:41;94315.03;;;4.93;100.00
7990;BME280;4040;42.848;23.034;2023-04-02T23:34:32;94324.97;;;5.03;100.00
7990;BME280;4040;42.848;23.034;2023-04-02T23:40:21;94324.25;;;5.16;100.00
7990;BME280;4040;42.848;23.034;2023-04-02T23:46:09;94291.41;;;5.12;100.00
7990;BME280;4040;42.848;23.034;2023-04-02T23:52:00;94315.81;;;5.04;100.00
7990;BME280;4040;42.848;23.034;2023-04-02T23:57:48;94288.34;;;4.96;100.00
